createdAt,value
2022-09-12T00:00:25.383Z,56.89
2022-09-12T00:02:54.249Z,56.97
2022-09-12T00:05:22.217Z,56.91
2022-09-12T00:07:50.261Z,56.87
2022-09-12T00:10:19.728Z,56.80
2022-09-12T00:12:47.647Z,56.96
2022-09-12T00:15:15.576Z,56.91
2022-09-12T00:17:43.519Z,56.82
2022-09-12T00:20:11.461Z,56.78
2022-09-12T00:22:39.844Z,56.82
2022-09-12T00:25:09.016Z,56.90
2022-09-12T00:27:38.382Z,56.65
2022-09-12T00:30:07.342Z,56.58
2022-09-12T00:32:35.391Z,56.64
2022-09-12T00:35:03.898Z,56.71
2022-09-12T00:37:31.768Z,56.63
2022-09-12T00:39:59.653Z,56.82
2022-09-12T00:42:27.700Z,56.84
2022-09-12T00:44:57.072Z,56.80
2022-09-12T00:47:26.245Z,56.73
2022-09-12T00:49:57.001Z,56.86
2022-09-12T00:52:27.695Z,56.91
2022-09-12T00:54:58.672Z,56.71
2022-09-12T00:57:29.047Z,56.52
2022-09-12T00:59:59.437Z,56.74
2022-09-12T01:02:27.365Z,56.87
2022-09-12T01:04:55.688Z,56.93
2022-09-12T01:07:24.032Z,56.79
2022-09-12T01:09:51.949Z,56.96
2022-09-12T01:12:19.852Z,56.81
2022-09-12T01:14:47.731Z,56.89
2022-09-12T01:17:17.118Z,56.85
2022-09-12T01:20:13.552Z,56.99
2022-09-12T01:23:11.070Z,56.97
2022-09-12T01:25:40.769Z,57.07
2022-09-12T01:28:19.401Z,57.16
2022-09-12T01:30:49.199Z,57.08
2022-09-12T01:33:30.211Z,57.23
2022-09-12T01:36:06.437Z,57.26
2022-09-12T01:38:36.348Z,57.21
2022-09-12T01:41:10.581Z,57.36
2022-09-12T01:43:42.017Z,57.26
2022-09-12T01:46:13.055Z,57.38
2022-09-12T01:48:43.034Z,57.38
2022-09-12T01:51:13.195Z,57.46
2022-09-12T01:53:42.723Z,57.36
2022-09-12T01:56:11.997Z,57.38
2022-09-12T01:58:41.860Z,57.58
2022-09-12T02:01:12.594Z,57.44
2022-09-12T02:03:44.437Z,57.59
2022-09-12T02:06:16.182Z,57.66
2022-09-12T02:08:45.599Z,57.47
2022-09-12T02:11:13.654Z,57.53
2022-09-12T02:16:26.938Z,57.53
2022-09-12T02:18:57.545Z,57.67
2022-09-12T02:21:25.750Z,57.52
2022-09-12T02:23:55.569Z,57.47
2022-09-12T02:26:26.445Z,57.44
2022-09-12T02:28:54.289Z,57.62
2022-09-12T02:31:24.710Z,57.50
2022-09-12T02:33:57.906Z,57.82
2022-09-12T02:36:32.905Z,57.73
2022-09-12T02:39:01.449Z,57.86
2022-09-12T02:41:29.325Z,57.77
2022-09-12T02:43:57.220Z,57.71
2022-09-12T02:46:28.060Z,57.96
2022-09-12T02:48:56.078Z,58.08
2022-09-12T02:51:24.644Z,57.90
2022-09-12T02:53:52.620Z,57.75
2022-09-12T02:56:23.996Z,57.96
2022-09-12T02:58:51.916Z,57.91
2022-09-12T03:01:27.730Z,57.89
2022-09-12T03:04:07.822Z,58.03
2022-09-12T03:06:37.888Z,58.13
2022-09-12T03:09:10.721Z,57.98
2022-09-12T03:11:57.709Z,58.13
2022-09-12T03:14:36.842Z,58.15
2022-09-12T03:17:09.648Z,58.04
2022-09-12T03:19:42.331Z,58.22
2022-09-12T03:22:12.121Z,58.16
2022-09-12T03:24:42.334Z,57.97
2022-09-12T03:27:11.827Z,58.12
2022-09-12T03:29:39.751Z,58.08
2022-09-12T03:32:09.080Z,58.16
2022-09-12T03:34:37.004Z,58.20
2022-09-12T03:37:05.090Z,58.23
2022-09-12T03:39:33.092Z,58.47
2022-09-12T03:42:01.072Z,58.42
2022-09-12T03:44:29.148Z,58.62
2022-09-12T03:46:57.026Z,58.36
2022-09-12T03:49:26.388Z,58.40
2022-09-12T03:51:54.296Z,58.36
2022-09-12T03:54:22.245Z,58.56
2022-09-12T03:56:50.172Z,58.61
2022-09-12T03:59:18.100Z,58.52
2022-09-12T04:01:45.952Z,58.36
2022-09-12T04:04:13.866Z,58.59
2022-09-12T04:06:44.154Z,58.36
2022-09-12T04:09:12.050Z,58.68
2022-09-12T04:11:39.953Z,58.14
2022-09-12T04:14:07.937Z,58.48
2022-09-12T04:16:35.933Z,58.63
2022-09-12T04:19:03.904Z,58.76
2022-09-12T04:21:32.097Z,58.88
2022-09-12T04:24:01.473Z,58.57
2022-09-12T04:26:29.913Z,58.65
2022-09-12T04:28:58.219Z,58.56
2022-09-12T04:31:26.222Z,58.79
2022-09-12T04:33:57.886Z,58.90
2022-09-12T04:36:25.819Z,58.81
2022-09-12T04:38:53.837Z,58.75
2022-09-12T04:41:24.667Z,58.70
2022-09-12T04:43:53.801Z,58.72
2022-09-12T04:46:21.761Z,58.81
2022-09-12T04:48:53.354Z,58.87
2022-09-12T04:51:27.751Z,58.66
2022-09-12T04:53:56.547Z,58.65
2022-09-12T04:56:26.390Z,58.66
2022-09-12T04:58:54.288Z,58.51
2022-09-12T05:01:23.100Z,58.74
2022-09-12T05:03:51.654Z,58.54
2022-09-12T05:06:20.732Z,58.66
2022-09-12T05:08:48.651Z,58.78
2022-09-12T05:11:21.527Z,58.70
2022-09-12T05:13:53.672Z,58.58
2022-09-12T05:16:21.793Z,58.64
2022-09-12T05:18:50.298Z,58.54
2022-09-12T05:21:20.210Z,58.51
2022-09-12T05:23:48.921Z,58.66
2022-09-12T05:26:17.296Z,58.44
2022-09-12T05:28:45.221Z,58.62
2022-09-12T05:31:15.325Z,58.62
2022-09-12T05:33:43.817Z,58.49
2022-09-12T05:36:13.000Z,58.54
2022-09-12T05:38:41.060Z,58.50
2022-09-12T05:41:17.487Z,58.42
2022-09-12T05:43:47.143Z,58.43
2022-09-12T05:46:17.151Z,58.45
2022-09-12T05:48:45.833Z,58.57
2022-09-12T05:51:17.544Z,58.54
2022-09-12T05:53:45.509Z,58.35
2022-09-12T05:56:14.180Z,58.35
2022-09-12T05:58:43.017Z,58.53
2022-09-12T06:01:12.383Z,58.32
2022-09-12T06:03:43.866Z,58.54
2022-09-12T06:06:13.717Z,58.40
2022-09-12T06:08:42.813Z,58.27
2022-09-12T06:11:11.958Z,58.31
2022-09-12T06:13:40.523Z,58.31
2022-09-12T06:16:09.481Z,58.47
2022-09-12T06:18:37.834Z,58.40
2022-09-12T06:21:07.945Z,58.38
2022-09-12T06:23:36.001Z,58.35
2022-09-12T06:26:04.567Z,58.08
2022-09-12T06:28:32.497Z,58.04
2022-09-12T06:31:04.614Z,58.03
2022-09-12T06:33:34.334Z,57.99
2022-09-12T06:36:12.069Z,58.04
2022-09-12T06:38:40.666Z,57.86
2022-09-12T06:41:09.610Z,57.98
2022-09-12T06:43:37.594Z,57.73
2022-09-12T06:46:05.910Z,57.83
2022-09-12T06:48:34.569Z,57.69
2022-09-12T06:51:06.567Z,57.66
2022-09-12T06:53:36.934Z,57.61
2022-09-12T06:56:06.821Z,57.45
2022-09-12T06:58:35.477Z,57.48
2022-09-12T07:01:04.627Z,57.44
2022-09-12T07:03:33.119Z,57.43
2022-09-12T07:06:04.165Z,57.34
2022-09-12T07:08:32.262Z,57.28
2022-09-12T07:11:02.664Z,57.26
2022-09-12T07:13:30.613Z,57.20
2022-09-12T07:15:59.680Z,57.15
2022-09-12T07:18:27.758Z,56.99
2022-09-12T07:20:55.809Z,57.29
2022-09-12T07:23:23.736Z,56.98
2022-09-12T07:25:54.492Z,56.92
2022-09-12T07:28:25.574Z,56.87
2022-09-12T07:30:54.607Z,56.79
2022-09-12T07:33:22.880Z,56.66
2022-09-12T07:35:55.933Z,56.70
2022-09-12T07:38:26.895Z,56.58
2022-09-12T07:40:54.826Z,56.50
2022-09-12T07:43:26.735Z,56.69
2022-09-12T07:45:59.558Z,56.48
2022-09-12T07:48:28.500Z,56.47
2022-09-12T07:51:00.154Z,56.30
2022-09-12T07:53:28.432Z,56.23
2022-09-12T07:55:57.975Z,56.27
2022-09-12T07:58:28.251Z,56.21
2022-09-12T08:00:56.539Z,55.95
2022-09-12T08:03:24.730Z,55.91
2022-09-12T08:05:52.765Z,55.79
2022-09-12T08:08:20.757Z,55.86
2022-09-12T08:10:48.683Z,55.59
2022-09-12T08:13:16.563Z,55.63
2022-09-12T08:15:45.948Z,55.20
2022-09-12T08:18:14.258Z,55.28
2022-09-12T08:20:42.128Z,55.34
2022-09-12T08:23:10.126Z,55.16
2022-09-12T08:25:40.603Z,55.46
2022-09-12T08:28:08.498Z,54.93
2022-09-12T08:30:36.699Z,55.04
2022-09-12T08:33:06.994Z,55.05
2022-09-12T08:35:35.497Z,54.99
2022-09-12T08:38:03.426Z,54.85
2022-09-12T08:40:31.357Z,54.62
2022-09-12T08:43:03.616Z,54.45
2022-09-12T08:45:47.523Z,54.80
2022-09-12T08:48:16.889Z,54.60
2022-09-12T08:50:49.345Z,54.09
2022-09-12T08:53:19.412Z,54.29
2022-09-12T08:55:47.979Z,54.12
2022-09-12T08:58:19.305Z,54.01
2022-09-12T09:01:28.367Z,53.88
2022-09-12T09:05:24.184Z,54.02
2022-09-12T09:12:26.567Z,54.01
2022-09-12T09:15:41.694Z,53.80
2022-09-12T09:18:42.846Z,53.61
2022-09-12T09:22:15.183Z,53.73
2022-09-12T09:29:59.914Z,53.03
2022-09-12T09:32:54.478Z,52.84
2022-09-12T09:35:26.401Z,52.09
2022-09-12T09:38:02.510Z,52.23
2022-09-12T09:40:37.076Z,52.03
2022-09-12T09:43:08.036Z,51.73
2022-09-12T09:45:35.993Z,51.57
2022-09-12T09:48:14.649Z,51.78
2022-09-12T09:50:42.625Z,51.33
2022-09-12T09:53:11.110Z,51.61
2022-09-12T09:55:41.221Z,51.21
2022-09-12T09:58:09.113Z,50.69
2022-09-12T10:00:37.528Z,50.75
2022-09-12T10:03:26.313Z,50.85
2022-09-12T10:05:55.017Z,50.19
2022-09-12T10:08:24.603Z,50.12
2022-09-12T10:11:01.370Z,50.54
2022-09-12T10:13:34.334Z,50.53
2022-09-12T10:16:03.746Z,50.40
2022-09-12T10:18:37.828Z,50.35
2022-09-12T10:21:19.017Z,50.32
2022-09-12T10:23:47.733Z,50.13
2022-09-12T10:26:16.626Z,50.04
2022-09-12T10:28:46.427Z,50.01
2022-09-12T10:31:18.486Z,49.66
2022-09-12T10:33:52.721Z,49.61
2022-09-12T10:36:20.858Z,48.79
2022-09-12T10:38:52.272Z,48.78
2022-09-12T10:41:20.154Z,48.68
2022-09-12T10:43:48.277Z,48.17
2022-09-12T10:46:24.138Z,48.14
2022-09-12T10:48:54.071Z,48.11
2022-09-12T10:51:29.154Z,48.37
2022-09-12T10:53:57.582Z,47.93
2022-09-12T10:56:28.011Z,48.13
2022-09-12T10:59:11.865Z,47.95
2022-09-12T11:01:44.350Z,46.81
2022-09-12T11:04:38.220Z,46.84
2022-09-12T11:07:25.607Z,46.58
2022-09-12T11:09:55.988Z,46.14
2022-09-12T11:12:27.738Z,46.51
2022-09-12T11:15:05.144Z,46.39
2022-09-12T11:17:41.864Z,46.56
2022-09-12T11:20:26.617Z,46.60
2022-09-12T11:23:07.129Z,46.27
2022-09-12T11:25:36.042Z,45.94
2022-09-12T11:28:28.392Z,45.71
2022-09-12T11:31:12.899Z,45.45
2022-09-12T11:33:43.470Z,45.79
2022-09-12T11:36:19.980Z,46.12
2022-09-12T11:38:55.746Z,45.92
2022-09-12T11:41:26.354Z,46.16
2022-09-12T11:43:56.735Z,45.41
2022-09-12T11:46:26.530Z,44.28
2022-09-12T11:48:56.788Z,44.31
2022-09-12T11:51:28.888Z,44.39
2022-09-12T11:54:04.125Z,44.14
2022-09-12T11:56:32.129Z,44.29
2022-09-12T11:59:02.631Z,43.97
2022-09-12T12:01:38.854Z,44.01
2022-09-12T12:04:12.064Z,43.72
2022-09-12T12:06:48.180Z,43.48
2022-09-12T12:09:16.276Z,43.49
2022-09-12T12:11:45.492Z,43.55
2022-09-12T12:14:15.845Z,44.69
2022-09-12T12:16:43.804Z,44.64
2022-09-12T12:19:34.292Z,44.64
2022-09-12T12:22:09.870Z,44.07
2022-09-12T12:24:54.525Z,43.06
2022-09-12T12:27:26.349Z,43.13
2022-09-12T12:29:54.236Z,41.64
2022-09-12T12:32:28.255Z,41.20
2022-09-12T12:35:03.772Z,41.29
2022-09-12T12:37:54.295Z,41.20
2022-09-12T12:40:26.277Z,41.33
2022-09-12T12:43:31.932Z,41.61
2022-09-12T12:46:04.894Z,41.58
2022-09-12T12:48:58.471Z,41.67
2022-09-12T12:51:49.371Z,41.87
2022-09-12T12:54:51.291Z,41.83
2022-09-12T12:57:21.343Z,42.51
2022-09-12T12:59:51.863Z,42.54
2022-09-12T13:02:22.541Z,42.51
2022-09-12T13:04:50.501Z,42.75
2022-09-12T13:07:26.177Z,42.46
2022-09-12T13:09:55.510Z,42.59
2022-09-12T13:12:24.326Z,42.58
2022-09-12T13:14:54.627Z,42.96
2022-09-12T13:17:28.572Z,43.21
2022-09-12T13:20:26.663Z,42.88
2022-09-12T13:22:53.486Z,43.45
2022-09-12T13:25:30.360Z,43.26
2022-09-12T13:28:02.817Z,43.56
2022-09-12T13:30:32.827Z,43.27
2022-09-12T13:33:15.609Z,43.48
2022-09-12T13:36:01.110Z,43.44
2022-09-12T13:38:32.913Z,43.59
2022-09-12T13:41:16.929Z,43.56
2022-09-12T13:43:46.730Z,43.85
2022-09-12T13:46:16.583Z,43.36
2022-09-12T13:48:44.757Z,43.98
2022-09-12T13:51:22.385Z,44.03
2022-09-12T13:53:50.752Z,44.02
2022-09-12T13:56:20.614Z,43.67
2022-09-12T13:58:56.482Z,43.41
2022-09-12T14:01:24.778Z,43.65
2022-09-12T14:04:10.745Z,43.65
2022-09-12T14:06:45.193Z,43.81
2022-09-12T14:09:14.525Z,43.23
2022-09-12T14:11:44.161Z,42.77
2022-09-12T14:14:31.494Z,42.73
2022-09-12T14:17:00.579Z,42.75
2022-09-12T14:19:29.289Z,41.79
2022-09-12T14:21:57.899Z,41.68
2022-09-12T14:24:26.120Z,41.66
2022-09-12T14:26:56.712Z,41.18
2022-09-12T14:29:25.307Z,40.84
2022-09-12T14:32:03.661Z,41.01
2022-09-12T14:34:31.653Z,41.01
2022-09-12T14:37:03.588Z,40.90
2022-09-12T14:39:32.906Z,41.06
2022-09-12T14:42:07.210Z,41.14
2022-09-12T14:44:35.441Z,41.13
2022-09-12T14:47:13.340Z,41.53
2022-09-12T14:49:41.232Z,41.75
2022-09-12T14:52:10.128Z,41.74
2022-09-12T14:54:39.579Z,41.94
2022-09-12T14:57:31.395Z,42.07
2022-09-12T15:00:17.893Z,42.14
2022-09-12T15:02:48.796Z,42.12
2022-09-12T15:05:27.642Z,41.75
2022-09-12T15:07:57.896Z,41.52
2022-09-12T15:10:28.371Z,41.83
2022-09-12T15:13:14.173Z,41.35
2022-09-12T15:15:42.881Z,41.56
2022-09-12T15:18:10.897Z,41.24
2022-09-12T15:20:39.038Z,41.83
2022-09-12T15:23:08.241Z,41.79
2022-09-12T15:25:36.274Z,41.47
2022-09-12T15:28:14.479Z,41.75
2022-09-12T15:30:42.505Z,41.94
2022-09-12T15:33:10.661Z,42.19
2022-09-12T15:35:39.152Z,42.23
2022-09-12T15:38:07.180Z,42.76
2022-09-12T15:40:35.049Z,42.48
2022-09-12T15:43:03.132Z,42.68
2022-09-12T15:45:33.135Z,42.85
2022-09-12T15:48:01.128Z,43.22
2022-09-12T15:50:29.201Z,43.18
2022-09-12T15:52:57.144Z,43.00
2022-09-12T15:55:26.133Z,42.81
2022-09-12T15:57:54.113Z,42.83
2022-09-12T16:00:22.835Z,43.05
2022-09-12T16:03:01.906Z,42.84
2022-09-12T16:09:07.094Z,42.83
2022-09-12T16:11:35.010Z,43.33
2022-09-12T16:14:03.754Z,43.19
2022-09-12T16:16:31.793Z,42.74
2022-09-12T16:19:01.153Z,42.80
2022-09-12T16:21:29.442Z,43.10
2022-09-12T16:23:57.387Z,42.62
2022-09-12T16:26:25.304Z,42.84
2022-09-12T16:28:56.032Z,42.70
2022-09-12T16:31:24.260Z,42.86
2022-09-12T16:33:52.354Z,42.85
2022-09-12T16:36:37.009Z,42.48
2022-09-12T16:39:06.275Z,42.74
2022-09-12T16:41:34.203Z,42.55
2022-09-12T16:44:02.257Z,42.75
2022-09-12T16:46:30.213Z,42.55
2022-09-12T16:48:58.807Z,42.79
2022-09-12T16:51:28.812Z,42.95
2022-09-12T16:53:59.195Z,42.78
2022-09-12T16:56:27.216Z,43.22
2022-09-12T16:58:55.175Z,42.77
2022-09-12T17:01:23.844Z,43.28
2022-09-12T17:03:54.163Z,42.86
2022-09-12T17:06:22.534Z,43.40
2022-09-12T17:08:52.623Z,43.44
2022-09-12T17:11:50.412Z,43.56
2022-09-12T17:24:05.520Z,43.79
2022-09-12T17:27:05.410Z,43.78
2022-09-12T17:29:52.958Z,43.82
2022-09-12T17:32:57.361Z,43.81
2022-09-12T17:35:45.918Z,43.96
2022-09-12T17:39:02.043Z,44.30
2022-09-12T17:42:20.941Z,44.54
2022-09-12T17:45:28.680Z,44.64
2022-09-12T17:49:12.314Z,44.47
2022-09-12T17:57:03.387Z,44.93
2022-09-12T17:59:51.769Z,45.35
2022-09-12T18:06:17.105Z,46.06
2022-09-12T18:35:57.678Z,46.66
2022-09-12T18:41:56.168Z,46.90
2022-09-12T19:04:52.542Z,46.65
2022-09-12T19:16:49.742Z,46.73
2022-09-12T19:44:10.556Z,46.41
2022-09-12T19:59:14.901Z,46.74
2022-09-12T20:03:39.040Z,46.78
